createdAt,value
2023-01-29T00:01:13.126Z,37.25
2023-01-29T00:03:42.190Z,36.75
2023-01-29T00:06:12.833Z,37.00
2023-01-29T00:08:41.679Z,37.00
2023-01-29T00:11:12.469Z,35.75
2023-01-29T00:13:41.084Z,36.50
2023-01-29T00:16:10.965Z,33.75
2023-01-29T00:18:40.044Z,37.50
2023-01-29T00:21:10.934Z,37.00
2023-01-29T00:23:39.728Z,35.50
2023-01-29T00:26:08.728Z,37.00
2023-01-29T00:28:39.097Z,32.25
2023-01-29T00:31:09.050Z,34.00
2023-01-29T00:33:38.027Z,36.00
2023-01-29T00:36:09.241Z,36.50
2023-01-29T00:38:39.155Z,38.75
2023-01-29T00:41:25.881Z,35.75
2023-01-29T00:44:13.421Z,38.50
2023-01-29T00:46:42.483Z,33.75
2023-01-29T00:49:11.869Z,33.00
2023-01-29T00:51:41.293Z,35.75
2023-01-29T00:54:09.947Z,23.25
2023-01-29T00:56:38.940Z,38.50
2023-01-29T00:59:08.758Z,38.25
2023-01-29T01:01:55.193Z,35.75
2023-01-29T01:04:23.836Z,29.00
2023-01-29T01:06:53.468Z,34.50
2023-01-29T01:09:39.389Z,33.75
2023-01-29T01:12:08.349Z,36.00
2023-01-29T01:14:38.416Z,35.25
2023-01-29T01:17:07.336Z,34.75
2023-01-29T01:19:35.945Z,34.25
2023-01-29T01:22:05.030Z,35.25
2023-01-29T01:24:33.629Z,36.75
2023-01-29T01:27:02.493Z,35.25
2023-01-29T01:29:31.444Z,39.00
2023-01-29T01:32:02.261Z,36.25
2023-01-29T01:34:30.793Z,36.25
2023-01-29T01:36:59.868Z,34.00
2023-01-29T01:39:28.674Z,29.00
2023-01-29T01:41:58.521Z,27.50
2023-01-29T01:44:56.457Z,36.75
2023-01-29T01:47:32.160Z,36.50
2023-01-29T01:50:08.680Z,35.50
2023-01-29T01:52:42.401Z,28.50
2023-01-29T01:55:14.736Z,36.00
2023-01-29T01:57:47.097Z,33.25
2023-01-29T02:00:19.110Z,38.25
2023-01-29T02:03:07.802Z,35.50
2023-01-29T02:05:55.175Z,34.25
2023-01-29T02:08:50.777Z,38.00
2023-01-29T02:11:20.205Z,35.75
2023-01-29T02:13:53.733Z,33.25
2023-01-29T02:16:27.612Z,36.75
2023-01-29T02:18:59.493Z,34.00
2023-01-29T02:21:51.961Z,37.00
2023-01-29T02:25:00.588Z,36.50
2023-01-29T02:27:38.960Z,36.00
2023-01-29T02:30:17.403Z,35.00
2023-01-29T02:32:58.680Z,34.25
2023-01-29T02:35:33.444Z,10.25
2023-01-29T02:38:14.044Z,33.25
2023-01-29T02:40:47.647Z,34.25
2023-01-29T02:43:26.989Z,36.75
2023-01-29T02:46:07.390Z,33.50
2023-01-29T02:48:43.018Z,38.00
2023-01-29T02:51:20.364Z,34.25
2023-01-29T02:53:57.083Z,36.00
2023-01-29T02:56:31.767Z,35.00
2023-01-29T02:59:06.604Z,36.25
2023-01-29T03:01:43.347Z,34.00
2023-01-29T03:04:15.482Z,34.00
2023-01-29T03:06:49.751Z,35.00
2023-01-29T03:09:26.818Z,36.00
2023-01-29T03:12:04.493Z,31.50
2023-01-29T03:14:52.727Z,34.00
2023-01-29T03:17:28.350Z,33.75
2023-01-29T03:19:57.710Z,34.25
2023-01-29T03:22:28.268Z,35.00
2023-01-29T03:25:17.093Z,36.50
2023-01-29T03:28:10.115Z,33.25
2023-01-29T03:31:03.701Z,32.00
2023-01-29T03:33:47.499Z,34.00
2023-01-29T03:36:20.437Z,34.00
2023-01-29T03:38:49.879Z,30.25
2023-01-29T03:41:26.431Z,21.00
2023-01-29T03:44:01.824Z,30.50
2023-01-29T03:46:37.416Z,35.75
2023-01-29T03:49:16.890Z,33.25
2023-01-29T03:51:56.880Z,35.00
2023-01-29T03:54:34.104Z,36.75
2023-01-29T03:57:15.537Z,37.00
2023-01-29T03:59:55.116Z,34.50
2023-01-29T04:02:51.837Z,32.00
2023-01-29T04:05:26.647Z,34.50
2023-01-29T04:08:12.943Z,32.50
2023-01-29T04:10:44.846Z,36.00
2023-01-29T04:13:17.229Z,39.25
2023-01-29T04:15:54.421Z,35.25
2023-01-29T04:18:35.967Z,34.00
2023-01-29T04:21:12.305Z,31.00
2023-01-29T04:23:41.092Z,38.50
2023-01-29T04:26:35.350Z,36.25
2023-01-29T04:29:22.219Z,36.25
2023-01-29T04:32:05.144Z,32.00
2023-01-29T04:34:45.018Z,36.00
2023-01-29T04:37:21.084Z,33.25
2023-01-29T04:39:57.658Z,31.50
2023-01-29T04:42:32.412Z,34.00
2023-01-29T04:45:09.695Z,14.75
2023-01-29T04:47:48.581Z,37.00
2023-01-29T04:50:22.492Z,34.00
2023-01-29T04:53:01.724Z,35.00
2023-01-29T04:55:37.608Z,37.25
2023-01-29T04:58:13.892Z,34.00
2023-01-29T05:00:44.759Z,34.50
2023-01-29T05:03:16.004Z,38.00
2023-01-29T05:05:48.107Z,38.00
2023-01-29T05:08:22.353Z,36.00
2023-01-29T05:10:53.479Z,34.25
2023-01-29T05:13:24.629Z,35.00
2023-01-29T05:15:58.810Z,34.00
2023-01-29T05:18:28.018Z,34.50
2023-01-29T05:20:58.693Z,35.00
2023-01-29T05:23:29.031Z,33.50
2023-01-29T05:25:58.181Z,37.75
2023-01-29T05:28:26.001Z,36.75
2023-01-29T05:30:57.541Z,39.00
2023-01-29T05:33:27.898Z,39.00
2023-01-29T05:35:57.559Z,36.00
2023-01-29T05:38:26.599Z,35.50
2023-01-29T05:40:59.330Z,36.75
2023-01-29T05:43:28.380Z,29.50
2023-01-29T05:45:59.382Z,34.00
2023-01-29T05:48:29.895Z,37.00
2023-01-29T05:51:01.899Z,38.25
2023-01-29T05:53:31.780Z,39.00
2023-01-29T05:56:05.039Z,36.25
2023-01-29T05:58:36.049Z,37.25
2023-01-29T06:01:12.315Z,37.50
2023-01-29T06:03:41.214Z,40.00
2023-01-29T06:06:10.307Z,35.25
2023-01-29T06:08:39.374Z,41.75
2023-01-29T06:11:11.785Z,34.00
2023-01-29T06:13:41.377Z,33.25
2023-01-29T06:16:11.511Z,39.00
2023-01-29T06:18:41.204Z,36.00
2023-01-29T06:21:12.860Z,38.50
2023-01-29T06:23:41.839Z,35.25
2023-01-29T06:26:14.348Z,40.50
2023-01-29T06:28:43.891Z,31.50
2023-01-29T06:31:35.202Z,36.00
2023-01-29T06:34:01.835Z,35.00
2023-01-29T06:36:30.344Z,35.50
2023-01-29T06:38:59.268Z,37.50
2023-01-29T06:41:29.160Z,23.75
2023-01-29T06:43:58.161Z,35.50
2023-01-29T06:46:26.772Z,36.00
2023-01-29T06:48:55.774Z,36.00
2023-01-29T06:51:24.925Z,33.50
2023-01-29T06:53:54.669Z,39.75
2023-01-29T06:56:23.858Z,37.00
2023-01-29T06:58:54.285Z,34.50
2023-01-29T07:01:35.141Z,36.25
2023-01-29T07:04:05.448Z,36.25
2023-01-29T07:06:34.371Z,38.00
2023-01-29T07:09:03.702Z,36.00
2023-01-29T07:11:32.715Z,36.50
2023-01-29T07:14:02.929Z,34.50
2023-01-29T07:16:31.699Z,36.00
2023-01-29T07:19:00.712Z,37.50
2023-01-29T07:21:29.687Z,40.50
2023-01-29T07:23:58.698Z,38.00
2023-01-29T07:26:27.464Z,39.25
2023-01-29T07:28:56.428Z,41.50
2023-01-29T07:31:26.523Z,41.00
2023-01-29T07:33:55.994Z,39.75
2023-01-29T07:36:25.219Z,39.00
2023-01-29T07:38:55.197Z,39.75
2023-01-29T07:41:23.852Z,38.50
2023-01-29T07:43:52.880Z,38.25
2023-01-29T07:46:21.443Z,39.25
2023-01-29T07:48:51.841Z,39.00
2023-01-29T07:51:21.486Z,41.00
2023-01-29T07:53:50.395Z,39.00
2023-01-29T07:56:19.063Z,34.50
2023-01-29T07:58:47.886Z,36.00
2023-01-29T08:01:16.627Z,35.50
2023-01-29T08:03:45.504Z,38.75
2023-01-29T08:06:15.460Z,38.00
2023-01-29T08:08:44.491Z,36.00
2023-01-29T08:11:13.090Z,29.00
2023-01-29T08:13:41.979Z,34.00
2023-01-29T08:16:10.624Z,34.25
2023-01-29T08:18:42.488Z,35.25
2023-01-29T08:21:13.005Z,36.25
2023-01-29T08:23:44.036Z,30.25
2023-01-29T08:26:12.650Z,33.25
2023-01-29T08:28:41.471Z,32.50
2023-01-29T08:31:15.204Z,36.00
2023-01-29T08:33:44.730Z,33.00
2023-01-29T08:36:13.802Z,42.25
2023-01-29T08:38:44.045Z,33.25
2023-01-29T08:41:13.171Z,33.75
2023-01-29T08:43:42.095Z,33.25
2023-01-29T08:46:10.949Z,35.75
2023-01-29T08:48:39.798Z,36.00
2023-01-29T08:51:10.903Z,37.00
2023-01-29T08:53:39.909Z,34.25
2023-01-29T08:56:10.077Z,39.25
2023-01-29T08:58:38.958Z,34.50
2023-01-29T09:01:08.454Z,32.75
2023-01-29T09:03:40.973Z,27.25
2023-01-29T09:06:11.047Z,39.00
2023-01-29T09:08:40.746Z,33.75
2023-01-29T09:11:11.302Z,39.75
2023-01-29T09:13:40.361Z,40.25
2023-01-29T09:16:09.425Z,40.25
2023-01-29T09:18:38.661Z,34.25
2023-01-29T09:21:07.260Z,36.25
2023-01-29T09:23:36.367Z,36.50
2023-01-29T09:26:05.964Z,36.75
2023-01-29T09:28:36.474Z,40.00
2023-01-29T09:31:05.499Z,34.00
2023-01-29T09:33:34.480Z,37.75
2023-01-29T09:36:04.535Z,35.75
2023-01-29T09:38:33.455Z,34.50
2023-01-29T09:41:10.640Z,39.50
2023-01-29T09:43:49.696Z,38.00
2023-01-29T09:46:24.090Z,31.75
2023-01-29T09:49:02.095Z,33.25
2023-01-29T09:51:37.350Z,34.50
2023-01-29T09:54:17.761Z,33.50
2023-01-29T09:56:47.586Z,37.00
2023-01-29T09:59:20.514Z,33.75
2023-01-29T10:02:00.793Z,38.00
2023-01-29T10:05:09.983Z,34.25
2023-01-29T10:08:23.933Z,33.50
2023-01-29T10:11:00.717Z,38.25
2023-01-29T10:13:42.271Z,35.50
2023-01-29T10:16:28.783Z,33.75
2023-01-29T10:19:24.020Z,36.75
2023-01-29T10:22:16.096Z,37.25
2023-01-29T10:24:54.114Z,36.25
2023-01-29T10:27:23.591Z,34.25
2023-01-29T10:29:56.735Z,39.50
2023-01-29T10:32:29.159Z,38.50
2023-01-29T10:35:00.095Z,37.00
2023-01-29T10:37:38.043Z,34.00
2023-01-29T10:40:21.402Z,34.00
2023-01-29T10:42:58.630Z,36.25
2023-01-29T10:45:35.644Z,40.50
2023-01-29T10:48:41.868Z,36.75
2023-01-29T10:51:23.085Z,36.50
2023-01-29T10:54:03.251Z,33.00
2023-01-29T10:56:47.092Z,33.50
2023-01-29T10:59:37.970Z,37.50
2023-01-29T11:02:18.047Z,35.75
2023-01-29T11:04:48.922Z,38.00
2023-01-29T11:07:21.051Z,37.25
2023-01-29T11:09:57.547Z,33.75
2023-01-29T11:12:32.168Z,33.50
2023-01-29T11:15:06.730Z,34.75
2023-01-29T11:17:35.504Z,30.50
2023-01-29T11:20:26.887Z,33.50
2023-01-29T11:22:56.877Z,35.25
2023-01-29T11:25:27.549Z,28.00
2023-01-29T11:27:57.704Z,29.50
2023-01-29T11:30:29.126Z,30.25
2023-01-29T11:33:08.979Z,28.00
2023-01-29T11:35:40.626Z,35.00
2023-01-29T11:38:19.648Z,31.50
2023-01-29T11:40:48.932Z,29.75
2023-01-29T11:43:31.515Z,25.25
2023-01-29T11:46:03.950Z,32.00
2023-01-29T11:48:42.260Z,28.25
2023-01-29T11:51:23.439Z,33.00
2023-01-29T11:53:56.595Z,29.75
2023-01-29T11:56:30.248Z,29.50
2023-01-29T11:58:59.974Z,34.00
2023-01-29T12:01:35.216Z,29.75
2023-01-29T12:04:06.257Z,30.75
2023-01-29T12:06:39.581Z,4.25
2023-01-29T12:09:14.480Z,31.00
2023-01-29T12:11:44.928Z,29.00
2023-01-29T12:14:28.365Z,25.25
2023-01-29T12:17:02.545Z,32.75
2023-01-29T12:19:40.047Z,32.25
2023-01-29T12:22:19.276Z,32.00
2023-01-29T12:24:54.057Z,30.50
2023-01-29T12:27:31.198Z,29.75
2023-01-29T12:30:09.375Z,18.75
2023-01-29T12:32:46.595Z,30.75
2023-01-29T12:35:22.389Z,32.25
2023-01-29T12:38:00.843Z,28.00
2023-01-29T12:40:34.202Z,33.25
2023-01-29T12:43:08.098Z,36.75
2023-01-29T12:45:38.819Z,34.00
2023-01-29T12:48:11.838Z,32.75
2023-01-29T12:50:41.793Z,31.50
2023-01-29T12:53:26.557Z,32.75
2023-01-29T12:56:00.057Z,31.75
2023-01-29T12:58:36.586Z,29.00
2023-01-29T13:01:13.805Z,30.00
2023-01-29T13:03:51.104Z,29.75
2023-01-29T13:06:24.144Z,29.75
2023-01-29T13:09:00.128Z,32.50
2023-01-29T13:11:36.586Z,29.50
2023-01-29T13:14:15.304Z,32.25
2023-01-29T13:16:49.391Z,29.75
2023-01-29T13:19:27.727Z,32.50
2023-01-29T13:22:00.376Z,26.75
2023-01-29T13:24:37.785Z,28.50
2023-01-29T13:27:07.447Z,28.00
2023-01-29T13:29:36.590Z,32.75
2023-01-29T13:32:06.936Z,31.00
2023-01-29T13:34:37.841Z,29.25
2023-01-29T13:37:12.696Z,33.25
2023-01-29T13:39:51.589Z,32.00
2023-01-29T13:42:22.629Z,30.25
2023-01-29T13:44:53.969Z,31.00
2023-01-29T13:47:27.395Z,16.00
2023-01-29T13:49:59.112Z,31.25
2023-01-29T13:52:35.970Z,31.25
2023-01-29T13:55:10.725Z,31.00
2023-01-29T13:57:52.717Z,29.50
2023-01-29T14:00:56.748Z,27.75
2023-01-29T14:04:05.003Z,21.50
2023-01-29T14:06:44.670Z,25.25
2023-01-29T14:09:50.715Z,28.50
2023-01-29T14:12:40.389Z,29.25
2023-01-29T14:15:34.702Z,26.75
2023-01-29T14:18:17.044Z,25.25
2023-01-29T14:20:59.930Z,31.50
2023-01-29T14:23:35.863Z,28.75
2023-01-29T14:26:07.614Z,30.75
2023-01-29T14:28:38.622Z,24.75
2023-01-29T14:31:07.781Z,29.50
2023-01-29T14:33:39.846Z,30.00
2023-01-29T14:36:13.892Z,29.00
2023-01-29T14:38:51.077Z,21.75
2023-01-29T14:41:27.962Z,28.67
2023-01-29T14:44:39.921Z,25.50
2023-01-29T14:47:20.341Z,28.50
2023-01-29T14:49:54.816Z,26.75
2023-01-29T14:52:29.375Z,27.50
2023-01-29T14:55:01.895Z,28.25
2023-01-29T14:57:33.139Z,21.25
2023-01-29T15:00:05.982Z,22.00
2023-01-29T15:02:42.126Z,27.50
2023-01-29T15:05:18.669Z,24.75
2023-01-29T15:07:54.571Z,30.25
2023-01-29T15:10:36.958Z,24.75
2023-01-29T15:13:15.369Z,24.25
2023-01-29T15:15:48.719Z,28.25
2023-01-29T15:18:28.476Z,29.50
2023-01-29T15:21:05.592Z,25.75
2023-01-29T15:23:35.652Z,25.75
2023-01-29T15:26:11.622Z,26.00
2023-01-29T15:28:42.297Z,25.50
2023-01-29T15:31:17.647Z,28.00
2023-01-29T15:33:50.015Z,27.00
2023-01-29T15:36:23.205Z,27.25
2023-01-29T15:39:12.566Z,25.50
2023-01-29T15:41:41.624Z,29.00
2023-01-29T15:44:16.389Z,26.25
2023-01-29T15:46:50.229Z,22.50
2023-01-29T15:49:26.313Z,26.50
2023-01-29T15:52:00.883Z,28.50
2023-01-29T15:54:33.195Z,31.50
2023-01-29T15:57:03.659Z,27.00
2023-01-29T15:59:36.648Z,32.50
2023-01-29T16:02:20.318Z,25.00
2023-01-29T16:04:50.712Z,32.00
2023-01-29T16:07:21.091Z,38.75
2023-01-29T16:09:50.418Z,31.50
2023-01-29T16:12:19.777Z,33.25
2023-01-29T16:14:51.727Z,35.00
2023-01-29T16:17:26.832Z,32.25
2023-01-29T16:20:01.356Z,30.75
2023-01-29T16:22:34.008Z,30.50
2023-01-29T16:25:08.227Z,30.50
2023-01-29T16:27:37.702Z,30.25
2023-01-29T16:30:07.626Z,28.75
2023-01-29T16:32:37.007Z,31.75
2023-01-29T16:35:08.321Z,30.75
2023-01-29T16:37:38.966Z,31.00
2023-01-29T16:40:15.575Z,31.25
2023-01-29T16:42:44.448Z,31.00
2023-01-29T16:45:28.525Z,30.50
2023-01-29T16:48:02.768Z,29.25
2023-01-29T16:50:46.259Z,32.75
2023-01-29T16:53:27.386Z,31.75
2023-01-29T16:56:05.480Z,33.50
2023-01-29T16:58:35.338Z,38.00
2023-01-29T17:01:06.542Z,33.50
2023-01-29T17:03:37.251Z,31.25
2023-01-29T17:06:13.785Z,34.25
2023-01-29T17:08:44.538Z,35.75
2023-01-29T17:11:24.344Z,33.25
2023-01-29T17:13:57.914Z,32.25
2023-01-29T17:16:29.695Z,30.50
2023-01-29T17:18:59.287Z,41.00
2023-01-29T17:21:30.081Z,38.75
2023-01-29T17:23:59.106Z,38.25
2023-01-29T17:26:27.714Z,34.00
2023-01-29T17:28:56.737Z,39.25
2023-01-29T17:31:25.503Z,37.50
2023-01-29T17:33:54.640Z,36.75
2023-01-29T17:36:23.415Z,35.50
2023-01-29T17:38:53.783Z,38.00
2023-01-29T17:41:26.851Z,36.25
2023-01-29T17:43:56.052Z,30.75
2023-01-29T17:46:24.629Z,37.00
2023-01-29T17:48:53.811Z,33.25
2023-01-29T17:51:24.796Z,34.50
2023-01-29T17:53:55.281Z,33.75
2023-01-29T17:56:28.107Z,35.50
2023-01-29T17:58:57.108Z,36.50
2023-01-29T18:01:25.827Z,38.25
2023-01-29T18:03:54.810Z,37.50
2023-01-29T18:06:28.553Z,35.75
2023-01-29T18:08:59.046Z,32.75
2023-01-29T18:11:28.249Z,34.25
2023-01-29T18:13:57.588Z,35.00
2023-01-29T18:16:26.841Z,37.00
2023-01-29T18:18:55.772Z,32.00
2023-01-29T18:21:24.401Z,36.75
2023-01-29T18:23:53.377Z,34.25
2023-01-29T18:26:23.470Z,39.00
2023-01-29T18:28:52.499Z,36.75
2023-01-29T18:31:21.149Z,35.00
2023-01-29T18:33:50.585Z,33.75
2023-01-29T18:36:19.875Z,32.00
2023-01-29T18:38:51.834Z,38.25
2023-01-29T18:41:20.558Z,32.00
2023-01-29T18:44:38.752Z,39.00
2023-01-29T18:47:08.804Z,40.00
2023-01-29T18:49:39.246Z,37.75
2023-01-29T18:52:08.544Z,34.75
2023-01-29T18:54:38.575Z,38.50
2023-01-29T18:57:14.332Z,36.75
2023-01-29T18:59:55.986Z,35.50
2023-01-29T19:02:26.470Z,32.25
2023-01-29T19:04:55.958Z,34.75
2023-01-29T19:07:24.872Z,35.00
2023-01-29T19:09:53.791Z,33.50
2023-01-29T19:12:23.152Z,28.25
2023-01-29T19:14:52.261Z,29.75
2023-01-29T19:17:21.002Z,28.75
2023-01-29T19:19:51.337Z,27.00
2023-01-29T19:22:20.117Z,31.00
2023-01-29T19:24:49.058Z,30.75
2023-01-29T19:27:18.353Z,29.25
2023-01-29T19:29:47.961Z,23.00
2023-01-29T19:32:17.070Z,32.00
2023-01-29T19:34:46.011Z,23.75
2023-01-29T19:37:17.093Z,30.00
2023-01-29T19:39:46.025Z,29.25
2023-01-29T19:42:14.615Z,29.25
2023-01-29T19:44:45.457Z,26.00
2023-01-29T19:47:14.107Z,31.25
2023-01-29T19:49:42.970Z,29.00
2023-01-29T19:52:15.010Z,34.00
2023-01-29T19:54:46.675Z,30.00
2023-01-29T19:57:15.461Z,27.50
2023-01-29T19:59:45.934Z,30.75
2023-01-29T20:02:15.335Z,8.75
2023-01-29T20:04:44.199Z,24.25
2023-01-29T20:07:12.771Z,31.00
2023-01-29T20:09:41.725Z,31.00
2023-01-29T20:12:13.089Z,28.50
2023-01-29T20:14:48.701Z,30.50
2023-01-29T20:17:18.069Z,29.00
2023-01-29T20:19:48.570Z,32.00
2023-01-29T20:22:40.777Z,34.00
2023-01-29T20:25:13.604Z,20.50
2023-01-29T20:27:44.374Z,31.50
2023-01-29T20:30:14.138Z,31.50
2023-01-29T20:32:42.634Z,22.25
2023-01-29T20:35:11.637Z,29.75
2023-01-29T20:37:40.334Z,31.50
2023-01-29T20:40:10.824Z,29.00
2023-01-29T20:42:40.581Z,28.50
2023-01-29T20:45:12.348Z,27.25
2023-01-29T20:47:41.420Z,29.25
2023-01-29T20:50:12.695Z,29.25
2023-01-29T20:52:43.414Z,24.00
2023-01-29T20:55:14.056Z,31.00
2023-01-29T20:57:43.038Z,26.75
2023-01-29T21:00:16.437Z,28.50
2023-01-29T21:02:45.883Z,29.75
2023-01-29T21:05:15.342Z,30.00
2023-01-29T21:07:44.027Z,28.00
2023-01-29T21:10:13.033Z,26.25
2023-01-29T21:12:41.729Z,28.50
2023-01-29T21:15:11.983Z,26.25
2023-01-29T21:17:42.028Z,29.00
2023-01-29T21:20:12.071Z,28.00
2023-01-29T21:22:42.684Z,29.00
2023-01-29T21:25:12.002Z,24.00
2023-01-29T21:27:40.827Z,25.50
2023-01-29T21:30:11.030Z,25.50
2023-01-29T21:32:41.118Z,27.25
2023-01-29T21:35:11.147Z,23.50
2023-01-29T21:37:40.037Z,19.50
2023-01-29T21:40:10.442Z,17.25
2023-01-29T21:42:56.745Z,24.25
2023-01-29T21:45:25.922Z,23.00
2023-01-29T21:47:55.945Z,25.75
2023-01-29T21:50:24.918Z,26.50
2023-01-29T21:52:54.163Z,26.00
2023-01-29T21:55:23.121Z,18.75
2023-01-29T21:57:52.104Z,27.00
2023-01-29T22:00:21.299Z,25.25
2023-01-29T22:02:51.380Z,24.75
2023-01-29T22:05:22.034Z,26.25
2023-01-29T22:07:51.235Z,22.75
2023-01-29T22:10:20.980Z,24.25
2023-01-29T22:12:50.366Z,20.25
2023-01-29T22:15:21.075Z,16.25
2023-01-29T22:17:51.089Z,19.75
2023-01-29T22:20:29.660Z,18.75
2023-01-29T22:23:00.627Z,20.50
2023-01-29T22:25:30.055Z,21.75
2023-01-29T22:27:58.841Z,24.50
2023-01-29T22:30:27.991Z,23.75
2023-01-29T22:32:56.664Z,21.25
2023-01-29T22:35:27.035Z,16.75
2023-01-29T22:37:55.667Z,17.00
2023-01-29T22:40:24.631Z,18.80
2023-01-29T22:42:53.294Z,22.00
2023-01-29T22:45:22.500Z,14.60
2023-01-29T22:47:51.031Z,19.60
2023-01-29T22:50:20.348Z,19.00
2023-01-29T22:52:54.261Z,15.00
2023-01-29T22:55:23.155Z,19.75
2023-01-29T22:57:53.825Z,15.25
2023-01-29T23:00:23.816Z,14.25
2023-01-29T23:02:53.013Z,16.50
2023-01-29T23:05:22.164Z,7.00
2023-01-29T23:07:52.179Z,15.00
2023-01-29T23:10:21.411Z,14.40
2023-01-29T23:12:50.293Z,15.75
2023-01-29T23:15:19.257Z,17.50
2023-01-29T23:17:48.071Z,18.25
2023-01-29T23:20:20.818Z,17.00
2023-01-29T23:22:49.733Z,17.00
2023-01-29T23:25:20.336Z,16.75
2023-01-29T23:27:48.140Z,15.50
2023-01-29T23:30:17.452Z,15.25
2023-01-29T23:32:46.402Z,13.00
2023-01-29T23:35:15.488Z,17.25
2023-01-29T23:37:44.132Z,16.40
2023-01-29T23:40:13.880Z,17.75
2023-01-29T23:42:43.774Z,14.60
2023-01-29T23:45:12.770Z,16.60
2023-01-29T23:47:41.682Z,16.00
2023-01-29T23:50:12.265Z,16.25
2023-01-29T23:52:40.692Z,16.20
2023-01-29T23:55:10.037Z,11.20
2023-01-29T23:57:38.633Z,16.20
